Time;durP1;ratioP1;P1;durP2;ratioP2;P2;SDS_P1;SDS_P2;PMS_P1;PMS_P2;Temp;Humidity;BMP_temperature;BMP_pressure;BME280_temperature;BME280_humidity;BME280_pressure;Samples;Min_cycle;Max_cycle;Signal;HPM_P1;HPM_P2
2022/06/07 00:00:44;;;;;;;2.38;1.50;;;15.30;99.90;;;;;;4088629;29;20522;-49
2022/06/07 00:03:06;;;;;;;2.47;1.20;;;15.20;99.90;;;;;;4094109;29;20402;-47
2022/06/07 00:05:28;;;;;;;2.13;1.45;;;15.20;99.90;;;;;;4093757;29;20077;-48
2022/06/07 00:07:50;;;;;;;4.53;1.50;;;15.10;99.90;;;;;;4085463;29;20093;-49
2022/06/07 00:10:12;;;;;;;4.82;1.40;;;14.90;99.90;;;;;;4093744;29;20139;-49
2022/06/07 00:12:33;;;;;;;1.95;1.83;;;14.80;99.90;;;;;;4154782;28;20133;-48
2022/06/07 00:14:54;;;;;;;1.30;1.20;;;14.80;99.90;;;;;;4093370;29;20062;-46
2022/06/07 00:17:14;;;;;;;2.20;2.00;;;14.90;99.90;;;;;;4092889;28;20046;-47
2022/06/07 00:19:36;;;;;;;2.15;1.77;;;15.00;99.90;;;;;;4093342;29;20131;-48
2022/06/07 00:21:56;;;;;;;1.60;1.50;;;15.20;99.90;;;;;;4093410;29;20489;-46
2022/06/07 00:24:17;;;;;;;3.70;1.75;;;15.30;99.90;;;;;;4094299;28;20126;-46
2022/06/07 00:26:38;;;;;;;1.52;1.33;;;15.40;99.90;;;;;;4082343;29;20406;-49
2022/06/07 00:29:00;;;;;;;1.20;1.17;;;15.50;99.90;;;;;;4087639;29;20059;-48
2022/06/07 00:31:22;;;;;;;1.80;1.00;;;15.50;99.90;;;;;;4096150;29;20051;-48
2022/06/07 00:33:43;;;;;;;1.05;0.90;;;15.50;99.90;;;;;;4096354;29;20097;-48
2022/06/07 00:36:04;;;;;;;1.77;1.00;;;15.40;99.90;;;;;;4095879;29;20062;-47
2022/06/07 00:38:30;;;;;;;1.25;1.10;;;15.30;99.90;;;;;;4095170;29;20105;-46
2022/06/07 00:40:51;;;;;;;0.90;0.90;;;15.30;99.90;;;;;;4095896;29;20101;-49
2022/06/07 00:43:13;;;;;;;1.75;1.33;;;15.30;99.90;;;;;;4096192;29;20161;-46
2022/06/07 00:45:34;;;;;;;1.85;1.33;;;15.20;99.90;;;;;;4095668;29;20105;-45
2022/06/07 00:47:55;;;;;;;2.15;1.10;;;15.20;99.90;;;;;;4095814;29;20073;-47
2022/06/07 00:50:25;;;;;;;3.78;2.03;;;15.20;99.90;;;;;;4095759;29;20061;-47
2022/06/07 00:52:47;;;;;;;1.20;1.20;;;15.00;99.90;;;;;;4080144;29;20073;-45
2022/06/07 00:55:09;;;;;;;1.73;1.20;;;15.00;99.90;;;;;;4092039;29;20078;-45
2022/06/07 00:57:31;;;;;;;2.55;1.00;;;15.10;99.90;;;;;;4095245;29;20633;-44
2022/06/07 00:59:53;;;;;;;2.33;1.08;;;14.90;99.90;;;;;;4095798;29;20094;-48
2022/06/07 01:02:14;;;;;;;1.45;1.10;;;14.70;99.90;;;;;;4080256;29;20407;-49
2022/06/07 01:04:36;;;;;;;4.05;1.40;;;14.70;99.90;;;;;;4091061;29;20066;-46
2022/06/07 01:12:17;;;;;;;1.88;1.55;;;14.70;99.90;;;;;;4159600;28;20078;-46
2022/06/07 01:14:38;;;;;;;1.80;1.70;;;14.60;99.90;;;;;;4084292;28;20127;-49
2022/06/07 01:17:02;;;;;;;1.58;1.48;;;14.40;99.90;;;;;;4087988;28;20054;-49
2022/06/07 01:19:23;;;;;;;2.30;1.30;;;14.50;99.90;;;;;;4095544;29;20105;-50
2022/06/07 01:21:45;;;;;;;1.88;1.10;;;14.60;99.90;;;;;;4095805;29;20090;-46
2022/06/07 01:24:06;;;;;;;2.33;2.22;;;14.60;99.90;;;;;;4095184;29;20081;-45
2022/06/07 01:26:28;;;;;;;1.60;1.50;;;14.60;99.90;;;;;;4095307;29;20054;-48
2022/06/07 01:28:50;;;;;;;2.13;1.20;;;14.50;99.90;;;;;;4095371;29;20058;-49
2022/06/07 01:31:11;;;;;;;1.45;1.30;;;14.50;99.90;;;;;;4095131;29;20050;-48
2022/06/07 01:33:34;;;;;;;1.48;1.38;;;14.40;99.90;;;;;;4095811;29;20062;-50
2022/06/07 01:36:04;;;;;;;1.88;1.60;;;14.30;99.90;;;;;;4093202;29;20051;-47
2022/06/07 01:38:26;;;;;;;2.15;1.83;;;14.10;99.90;;;;;;4095249;29;20098;-48
2022/06/07 01:43:30;;;;;;;2.25;1.90;;;14.00;99.90;;;;;;4095576;29;20131;-49
2022/06/07 01:45:51;;;;;;;3.58;1.30;;;14.00;99.90;;;;;;4095222;29;20470;-49
2022/06/07 01:48:12;;;;;;;5.57;1.23;;;13.90;99.90;;;;;;4095120;29;20058;-46
2022/06/07 01:50:33;;;;;;;3.17;2.22;;;14.10;99.90;;;;;;4095456;29;20561;-49
2022/06/07 01:52:54;;;;;;;1.60;1.50;;;13.90;99.90;;;;;;4095003;29;20126;-50
2022/06/07 01:55:15;;;;;;;3.25;2.10;;;13.90;99.90;;;;;;4095102;29;20055;-49
2022/06/07 01:57:37;;;;;;;3.38;1.70;;;13.70;99.90;;;;;;4094641;29;20066;-47
2022/06/07 01:59:59;;;;;;;1.90;1.80;;;13.70;99.90;;;;;;4095540;29;20127;-52
2022/06/07 02:02:24;;;;;;;2.42;2.33;;;13.70;99.90;;;;;;4094920;29;20117;-51
2022/06/07 02:04:45;;;;;;;2.35;1.63;;;13.50;99.90;;;;;;4094806;29;20109;-46
2022/06/07 02:07:08;;;;;;;2.92;1.60;;;13.60;99.90;;;;;;4094687;29;20078;-50
2022/06/07 02:09:35;;;;;;;2.20;1.27;;;13.60;99.90;;;;;;4095373;29;20097;-51
2022/06/07 02:11:56;;;;;;;2.47;1.90;;;13.60;99.90;;;;;;4095124;29;20592;-49
2022/06/07 02:14:18;;;;;;;5.32;2.15;;;13.50;99.90;;;;;;4094795;29;20058;-48
2022/06/07 02:16:40;;;;;;;1.83;1.40;;;13.60;99.90;;;;;;4094819;29;20105;-51
2022/06/07 02:19:01;;;;;;;1.60;1.50;;;13.70;99.90;;;;;;4095050;29;20054;-49
2022/06/07 02:21:23;;;;;;;1.50;1.40;;;13.60;99.90;;;;;;4081537;29;20097;-49
2022/06/07 02:23:46;;;;;;;1.42;1.33;;;13.70;99.90;;;;;;4085357;29;20097;-51
2022/06/07 02:26:19;;;;;;;2.90;1.40;;;13.60;99.90;;;;;;4094606;29;20177;-49
2022/06/07 02:28:44;;;;;;;4.00;2.42;;;13.70;99.90;;;;;;4094590;29;20059;-51
2022/06/07 02:31:09;;;;;;;2.05;1.58;;;13.60;99.90;;;;;;4094491;29;20062;-52
2022/06/07 02:33:33;;;;;;;1.90;1.80;;;13.40;99.90;;;;;;4086597;29;20518;-50
2022/06/07 02:35:55;;;;;;;3.03;1.35;;;13.30;99.90;;;;;;4078623;29;20067;-51
2022/06/07 02:38:16;;;;;;;1.33;1.30;;;13.20;99.90;;;;;;4078796;29;20098;-50
2022/06/07 02:40:38;;;;;;;3.28;1.38;;;13.40;99.90;;;;;;4093043;29;20058;-50
2022/06/07 02:42:59;;;;;;;2.50;1.30;;;13.30;99.90;;;;;;4094312;29;20126;-51
2022/06/07 02:45:21;;;;;;;4.10;1.60;;;13.40;99.90;;;;;;4093466;29;20061;-51
2022/06/07 02:47:44;;;;;;;4.68;1.20;;;13.40;99.90;;;;;;4078889;29;20534;-50
2022/06/07 02:50:06;;;;;;;3.17;2.05;;;13.30;99.90;;;;;;4092051;29;20562;-49
2022/06/07 02:52:27;;;;;;;3.30;1.85;;;13.20;99.90;;;;;;4094431;29;20105;-51
2022/06/07 02:54:49;;;;;;;2.67;2.58;;;13.30;99.90;;;;;;4094505;29;20569;-51
2022/06/07 02:57:10;;;;;;;1.92;1.83;;;13.40;99.90;;;;;;4078324;29;20046;-50
2022/06/07 02:59:32;;;;;;;1.92;1.75;;;13.30;99.90;;;;;;4078857;29;20058;-51
2022/06/07 03:01:53;;;;;;;5.10;1.85;;;13.40;99.90;;;;;;4084002;29;20046;-52
2022/06/07 03:04:14;;;;;;;1.77;1.33;;;13.20;99.90;;;;;;4094066;29;20415;-48
2022/06/07 03:06:35;;;;;;;5.57;1.60;;;13.20;99.90;;;;;;4083363;29;20162;-52
2022/06/07 03:08:56;;;;;;;1.95;1.60;;;13.10;99.90;;;;;;4089206;29;20548;-50
2022/06/07 03:11:18;;;;;;;1.88;1.77;;;13.10;99.90;;;;;;4094100;29;20057;-48
2022/06/07 03:13:40;;;;;;;2.13;1.80;;;13.30;99.90;;;;;;4094562;29;20089;-50
2022/06/07 03:16:02;;;;;;;2.05;2.05;;;13.40;99.90;;;;;;4078610;29;20110;-50
2022/06/07 03:18:23;;;;;;;2.17;1.88;;;13.30;99.90;;;;;;4090272;28;20105;-50
2022/06/07 03:20:48;;;;;;;3.63;1.67;;;13.30;99.90;;;;;;4093939;29;20049;-49
2022/06/07 03:23:10;;;;;;;2.22;2.03;;;13.20;99.90;;;;;;4094607;29;20074;-51
2022/06/07 03:25:32;;;;;;;2.63;1.33;;;13.10;99.90;;;;;;4092751;29;20094;-49
2022/06/07 03:27:53;;;;;;;2.20;2.03;;;12.90;99.90;;;;;;4094210;29;20065;-50
2022/06/07 03:30:15;;;;;;;2.33;1.52;;;12.80;99.90;;;;;;4094208;29;20105;-49
2022/06/07 03:32:38;;;;;;;1.63;1.52;;;12.80;99.90;;;;;;4094112;29;20752;-47
2022/06/07 03:35:00;;;;;;;5.90;1.85;;;12.70;99.90;;;;;;4094145;29;20114;-49
2022/06/07 03:37:22;;;;;;;1.10;1.10;;;12.80;99.90;;;;;;4094087;29;20370;-51
2022/06/07 03:39:44;;;;;;;2.25;1.85;;;12.90;99.90;;;;;;4094358;29;20418;-50
2022/06/07 03:42:06;;;;;;;1.50;1.40;;;12.90;99.90;;;;;;4094046;29;20533;-49
2022/06/07 03:44:30;;;;;;;4.95;1.40;;;12.70;99.90;;;;;;4093999;29;20136;-48
2022/06/07 03:46:53;;;;;;;1.92;1.67;;;12.60;99.90;;;;;;4094009;29;20062;-50
2022/06/07 03:49:14;;;;;;;;;;;12.50;99.90;;;;;;4094485;29;20130;-49
2022/06/07 03:51:36;;;;;;;2.33;1.30;;;12.50;99.90;;;;;;4093960;29;20135;-50
2022/06/07 03:53:58;;;;;;;1.73;1.42;;;12.50;99.90;;;;;;4094121;29;20105;-48
2022/06/07 03:56:23;;;;;;;1.48;1.38;;;12.50;99.90;;;;;;4094284;29;20051;-51
2022/06/07 03:58:45;;;;;;;3.22;1.65;;;12.50;99.90;;;;;;4093821;28;20053;-49
2022/06/07 04:01:09;;;;;;;2.72;1.52;;;12.60;99.90;;;;;;4096479;29;20264;-48
2022/06/07 04:03:34;;;;;;;2.45;2.30;;;12.50;99.90;;;;;;4096406;29;20132;-51
2022/06/07 04:05:56;;;;;;;5.07;2.73;;;12.40;99.90;;;;;;4097031;29;20058;-52
2022/06/07 04:08:18;;;;;;;2.22;2.13;;;12.50;99.90;;;;;;4096650;29;20085;-48
2022/06/07 04:10:52;;;;;;;1.77;1.67;;;12.60;99.90;;;;;;4096700;29;20184;-51
2022/06/07 04:13:18;;;;;;;2.22;2.00;;;12.50;99.90;;;;;;4081934;29;20054;-50
2022/06/07 04:15:39;;;;;;;1.67;1.55;;;12.70;99.90;;;;;;4080771;29;20082;-49
2022/06/07 04:18:02;;;;;;;2.45;1.80;;;12.90;99.90;;;;;;4094862;28;20406;-51
2022/06/07 04:20:24;;;;;;;2.33;2.22;;;12.80;99.90;;;;;;4096284;29;20082;-50
2022/06/07 04:22:48;;;;;;;2.75;1.50;;;12.70;99.90;;;;;;4096401;29;20633;-49
2022/06/07 04:25:10;;;;;;;2.45;2.20;;;12.60;99.90;;;;;;4176020;28;20052;-48
2022/06/07 04:27:31;;;;;;;1.60;1.60;;;12.60;99.90;;;;;;4117874;28;20058;-49
2022/06/07 04:29:52;;;;;;;2.05;1.95;;;12.60;99.90;;;;;;4096005;29;20123;-50
2022/06/07 04:32:16;;;;;;;2.45;1.92;;;12.70;99.90;;;;;;4094124;29;20505;-50
2022/06/07 04:34:38;;;;;;;2.97;2.65;;;12.70;99.90;;;;;;4082911;29;20066;-51
2022/06/07 04:37:00;;;;;;;1.98;1.88;;;12.70;99.90;;;;;;4096250;29;20050;-50
2022/06/07 04:39:22;;;;;;;2.63;2.42;;;12.70;99.90;;;;;;4088144;29;20137;-49
2022/06/07 04:41:44;;;;;;;2.22;2.13;;;12.80;99.90;;;;;;4087936;29;20455;-52
2022/06/07 04:44:06;;;;;;;4.43;2.38;;;12.80;99.90;;;;;;4095409;29;20061;-50
2022/06/07 04:46:28;;;;;;;1.90;1.80;;;12.90;99.90;;;;;;4090700;29;20058;-50
2022/06/07 04:48:50;;;;;;;2.15;2.05;;;13.00;99.90;;;;;;4094167;29;20058;-51
2022/06/07 04:51:14;;;;;;;2.15;1.95;;;13.10;99.90;;;;;;4080408;29;20059;-49
2022/06/07 04:53:40;;;;;;;2.53;2.42;;;13.20;99.90;;;;;;4079900;29;20097;-49
2022/06/07 04:56:14;;;;;;;4.63;2.33;;;13.20;99.90;;;;;;4089746;29;20097;-50
2022/06/07 04:58:36;;;;;;;2.15;2.05;;;13.20;99.90;;;;;;4095975;29;20457;-48
2022/06/07 05:00:58;;;;;;;6.70;3.35;;;13.10;99.90;;;;;;4095560;29;20152;-50
2022/06/07 05:03:21;;;;;;;4.20;1.88;;;13.20;99.90;;;;;;4080262;29;20125;-51
2022/06/07 05:05:42;;;;;;;3.20;2.50;;;13.30;99.90;;;;;;4089909;29;20280;-48
2022/06/07 05:08:04;;;;;;;2.28;2.08;;;13.30;99.90;;;;;;4095487;29;20070;-50
2022/06/07 05:10:27;;;;;;;2.25;2.00;;;13.30;99.90;;;;;;4095436;29;20061;-48
2022/06/07 05:12:48;;;;;;;2.60;2.25;;;13.40;99.90;;;;;;4095613;29;20393;-50
2022/06/07 05:15:10;;;;;;;2.17;2.08;;;13.50;99.90;;;;;;4094876;29;20050;-49
2022/06/07 05:17:32;;;;;;;5.88;2.47;;;13.50;99.90;;;;;;4085136;28;20056;-51
2022/06/07 05:19:53;;;;;;;3.00;2.13;;;13.60;99.90;;;;;;4091914;29;20518;-46
2022/06/07 05:22:15;;;;;;;2.72;2.53;;;13.70;99.90;;;;;;4093931;29;20074;-50
2022/06/07 05:24:38;;;;;;;2.00;1.90;;;13.80;99.90;;;;;;4094499;29;20127;-49
2022/06/07 05:27:01;;;;;;;4.05;2.10;;;13.90;99.90;;;;;;4095170;29;20062;-49
2022/06/07 05:29:37;;;;;;;2.28;2.08;;;14.00;99.90;;;;;;4095137;29;20066;-50
2022/06/07 05:31:59;;;;;;;1.70;1.60;;;14.10;99.90;;;;;;4079561;29;20062;-48
2022/06/07 05:34:21;;;;;;;1.70;1.50;;;14.20;99.90;;;;;;4079458;29;20050;-49
2022/06/07 05:36:43;;;;;;;1.90;1.77;;;14.30;99.90;;;;;;4082615;29;20086;-48
2022/06/07 05:39:04;;;;;;;1.75;1.38;;;14.40;99.90;;;;;;4095699;29;20046;-46
2022/06/07 05:41:32;;;;;;;1.92;1.83;;;14.50;99.90;;;;;;4095334;29;20139;-49
2022/06/07 05:43:53;;;;;;;2.65;1.33;;;14.60;99.90;;;;;;4094954;29;20047;-47
2022/06/07 05:46:15;;;;;;;2.30;1.80;;;14.70;99.90;;;;;;4092293;29;20054;-47
2022/06/07 05:48:37;;;;;;;3.22;1.23;;;14.70;99.90;;;;;;4078914;29;20545;-48
2022/06/07 05:50:59;;;;;;;2.25;2.05;;;14.80;99.90;;;;;;4089188;29;20143;-50
2022/06/07 05:53:23;;;;;;;1.10;1.10;;;14.90;99.90;;;;;;4094956;29;20105;-50
2022/06/07 05:55:45;;;;;;;1.52;1.42;;;14.90;99.90;;;;;;4094929;29;20074;-48
2022/06/07 05:58:07;;;;;;;1.45;1.35;;;14.90;99.90;;;;;;4095451;29;20057;-47
2022/06/07 06:00:30;;;;;;;3.95;1.40;;;14.90;99.90;;;;;;4081123;29;20102;-47
2022/06/07 06:02:51;;;;;;;2.65;1.35;;;14.90;99.90;;;;;;4094241;29;20054;-49
2022/06/07 06:05:13;;;;;;;4.28;2.25;;;15.00;99.90;;;;;;4094553;29;20116;-48
2022/06/07 06:07:36;;;;;;;2.25;2.15;;;15.20;99.90;;;;;;4093867;29;20107;-48
2022/06/07 06:12:38;;;;;;;1.40;1.40;;;15.30;99.90;;;;;;4125959;28;20051;-47
2022/06/07 06:15:00;;;;;;;2.53;1.52;;;15.40;99.90;;;;;;4094924;29;20050;-47
2022/06/07 06:17:21;;;;;;;1.25;1.15;;;15.50;99.90;;;;;;4094412;28;20094;-47
2022/06/07 06:19:43;;;;;;;7.13;1.83;;;15.70;99.90;;;;;;4079602;29;20055;-47
2022/06/07 06:22:06;;;;;;;1.90;1.23;;;15.90;99.90;;;;;;4078609;29;20294;-50
2022/06/07 06:24:27;;;;;;;3.97;1.30;;;16.00;99.90;;;;;;4081002;29;20071;-50
2022/06/07 06:26:48;;;;;;;7.05;2.17;;;16.30;99.90;;;;;;4094652;29;20425;-49
2022/06/07 06:29:11;;;;;;;2.60;1.80;;;16.60;99.90;;;;;;4094780;29;20058;-50
2022/06/07 06:31:34;;;;;;;;;;;16.90;99.90;;;;;;4087055;29;20059;-47
2022/06/07 06:33:56;;;;;;;1.10;1.00;;;17.40;99.90;;;;;;4080476;29;19934;-47
2022/06/07 06:36:21;;;;;;;1.10;1.00;;;17.40;99.90;;;;;;4094485;29;20127;-50
2022/06/07 06:38:43;;;;;;;1.00;1.00;;;17.40;99.90;;;;;;4094537;29;20537;-48
2022/06/07 06:41:30;;;;;;;2.28;1.20;;;17.80;99.90;;;;;;4094327;29;20537;-51
2022/06/07 06:43:52;;;;;;;2.63;1.08;;;17.80;99.90;;;;;;4090314;29;20451;-51
2022/06/07 06:46:17;;;;;;;1.63;1.10;;;18.00;99.90;;;;;;4078888;29;20407;-49
2022/06/07 06:48:39;;;;;;;3.67;0.90;;;18.60;99.90;;;;;;4078723;29;20055;-49
2022/06/07 06:51:10;;;;;;;1.77;1.23;;;19.00;99.90;;;;;;4083987;29;20059;-48
2022/06/07 06:53:35;;;;;;;2.25;1.20;;;18.70;99.90;;;;;;4094407;29;20517;-47
2022/06/07 06:55:56;;;;;;;4.20;1.20;;;18.60;99.90;;;;;;4094623;29;20124;-50
2022/06/07 06:58:18;;;;;;;1.00;0.95;;;19.00;99.90;;;;;;4078735;29;20070;-50
2022/06/07 07:00:40;;;;;;;0.93;0.80;;;19.20;99.90;;;;;;4089286;29;20117;-47
2022/06/07 07:03:01;;;;;;;0.80;0.80;;;19.50;99.90;;;;;;4090196;29;20158;-48
2022/06/07 07:05:31;;;;;;;1.08;0.90;;;20.00;99.90;;;;;;4078607;29;20105;-48
2022/06/07 07:07:53;;;;;;;1.13;1.00;;;20.60;99.90;;;;;;4085897;29;20090;-48
2022/06/07 07:10:15;;;;;;;1.55;0.90;;;20.10;99.90;;;;;;4094457;29;20073;-51
2022/06/07 07:12:36;;;;;;;0.75;0.75;;;20.20;99.90;;;;;;4089757;29;20070;-50
2022/06/07 07:14:58;;;;;;;2.28;0.80;;;20.40;99.90;;;;;;4078415;29;20058;-50
2022/06/07 07:17:20;;;;;;;3.97;1.63;;;20.90;99.90;;;;;;4082217;28;20576;-47
2022/06/07 07:19:42;;;;;;;1.38;0.73;;;21.00;99.90;;;;;;4094030;29;20062;-50
2022/06/07 07:22:04;;;;;;;0.80;0.80;;;21.40;99.90;;;;;;4090276;29;20055;-47
2022/06/07 07:24:26;;;;;;;1.50;0.70;;;21.80;99.90;;;;;;4078742;29;20074;-50
2022/06/07 07:26:49;;;;;;;2.90;0.70;;;21.80;99.90;;;;;;4078756;29;20082;-48
2022/06/07 07:29:13;;;;;;;1.88;0.70;;;21.70;99.90;;;;;;4078318;29;20166;-50
2022/06/07 07:31:36;;;;;;;2.15;0.88;;;21.60;99.90;;;;;;4081226;29;20051;-47
2022/06/07 07:33:59;;;;;;;1.57;1.10;;;22.10;99.90;;;;;;4094064;28;20042;-48
2022/06/07 07:36:21;;;;;;;1.65;0.80;;;22.60;99.90;;;;;;4096975;29;20142;-49
2022/06/07 07:38:42;;;;;;;1.35;0.70;;;23.00;99.90;;;;;;4095952;29;20532;-48
2022/06/07 07:41:17;;;;;;;1.80;0.80;;;22.70;99.90;;;;;;4096862;29;20093;-48
2022/06/07 07:43:38;;;;;;;3.60;1.33;;;22.70;99.90;;;;;;4096703;29;20117;-48
2022/06/07 07:46:00;;;;;;;3.27;1.73;;;22.70;99.90;;;;;;4081212;29;20058;-47
2022/06/07 07:48:24;;;;;;;1.17;0.77;;;22.80;99.90;;;;;;4090627;29;21016;-47
2022/06/07 07:50:47;;;;;;;0.95;0.70;;;22.70;99.90;;;;;;4092284;29;20057;-50
2022/06/07 07:53:13;;;;;;;3.35;0.70;;;23.00;99.90;;;;;;4080655;29;20114;-50
2022/06/07 07:55:34;;;;;;;3.50;0.90;;;23.30;99.90;;;;;;4080561;29;20517;-47
2022/06/07 07:57:57;;;;;;;1.27;0.70;;;23.50;99.90;;;;;;4090698;29;20051;-47
2022/06/07 08:00:18;;;;;;;4.30;1.23;;;23.70;99.90;;;;;;4096918;29;20093;-47
2022/06/07 08:02:40;;;;;;;0.67;0.67;;;23.60;99.90;;;;;;4096914;29;20050;-46
2022/06/07 08:05:03;;;;;;;14.85;0.90;;;23.50;99.90;;;;;;4096666;29;20336;-48
2022/06/07 08:07:24;;;;;;;2.67;0.70;;;23.90;99.90;;;;;;4091324;29;20101;-48
2022/06/07 08:09:46;;;;;;;3.73;1.00;;;24.20;99.90;;;;;;4096537;29;20093;-46
2022/06/07 08:12:08;;;;;;;0.82;0.70;;;24.50;99.90;;;;;;4157922;28;20529;-48
2022/06/07 08:14:30;;;;;;;2.60;0.88;;;24.40;99.90;;;;;;4102119;28;20482;-45
2022/06/07 08:16:54;;;;;;;2.60;0.63;;;23.80;99.90;;;;;;4088203;28;20130;-45
2022/06/07 08:19:18;;;;;;;2.50;0.63;;;23.90;99.90;;;;;;4094625;29;20054;-48
2022/06/07 08:21:40;;;;;;;0.73;0.60;;;24.10;99.90;;;;;;4066421;29;20577;-46
2022/06/07 08:24:04;;;;;;;3.70;0.75;;;24.20;99.90;;;;;;4079915;29;20109;-47
2022/06/07 08:26:27;;;;;;;1.20;0.70;;;24.50;99.90;;;;;;4088444;29;20073;-49
2022/06/07 08:28:48;;;;;;;1.20;0.70;;;24.50;99.90;;;;;;4080048;29;20646;-48
2022/06/07 08:31:12;;;;;;;2.03;0.60;;;24.80;99.90;;;;;;4080765;29;20066;-46
2022/06/07 08:38:56;;;;;;;2.28;0.50;;;26.20;99.90;;;;;;4096207;29;20286;-46
2022/06/07 08:41:31;;;;;;;5.18;0.93;;;26.30;99.90;;;;;;4096087;29;20051;-46
2022/06/07 08:44:02;;;;;;;0.60;0.60;;;25.90;99.90;;;;;;4095697;29;20061;-46
2022/06/07 08:46:30;;;;;;;1.95;0.52;;;25.40;99.90;;;;;;4095597;29;20062;-45
2022/06/07 08:48:54;;;;;;;0.50;0.50;;;25.10;99.90;;;;;;4095559;29;20469;-45
2022/06/07 08:51:38;;;;;;;0.88;0.50;;;25.50;99.90;;;;;;4083050;29;20054;-48
2022/06/07 08:54:04;;;;;;;0.80;0.50;;;25.70;99.90;;;;;;4095820;29;20109;-48
2022/06/07 08:56:32;;;;;;;1.33;0.50;;;25.60;99.90;;;;;;4080103;29;20046;-47
2022/06/07 08:58:57;;;;;;;1.08;0.70;;;26.00;99.90;;;;;;4092464;29;20050;-47
2022/06/07 09:01:35;;;;;;;1.95;0.50;;;25.90;99.90;;;;;;4095871;29;20094;-44
2022/06/07 09:04:22;;;;;;;2.65;0.60;;;25.90;99.90;;;;;;4095491;29;20143;-45
2022/06/07 09:06:47;;;;;;;0.75;0.50;;;25.70;99.90;;;;;;4095582;29;20057;-45
2022/06/07 09:09:13;;;;;;;0.63;0.57;;;25.60;99.90;;;;;;4095426;29;20050;-48
2022/06/07 09:14:34;;;;;;;1.92;0.60;;;25.80;99.90;;;;;;4125010;28;20162;-46
2022/06/07 09:16:56;;;;;;;1.90;0.50;;;25.90;99.90;;;;;;4095198;28;20465;-45
2022/06/07 09:19:24;;;;;;;1.42;0.50;;;25.80;99.90;;;;;;4095307;29;20050;-48
2022/06/07 09:21:49;;;;;;;1.48;0.60;;;26.10;99.90;;;;;;4086207;29;20047;-47
2022/06/07 09:24:21;;;;;;;2.05;0.68;;;26.20;99.90;;;;;;4087657;29;20105;-48
2022/06/07 09:26:42;;;;;;;0.98;0.50;;;26.00;99.90;;;;;;4087148;29;20058;-47
2022/06/07 09:29:22;;;;;;;0.70;0.50;;;26.10;99.90;;;;;;4092522;29;20521;-46
2022/06/07 09:31:48;;;;;;;0.80;0.57;;;26.80;99.90;;;;;;4089402;29;20058;-46
2022/06/07 09:34:19;;;;;;;1.23;0.60;;;26.70;99.60;;;;;;4093494;29;20054;-45
2022/06/07 09:36:46;;;;;;;2.35;0.60;;;26.50;99.90;;;;;;4079985;29;20441;-47
2022/06/07 09:39:20;;;;;;;3.10;0.60;;;26.30;99.90;;;;;;4093643;29;20113;-45
2022/06/07 09:41:57;;;;;;;1.98;0.60;;;26.30;99.90;;;;;;4079569;29;20114;-45
2022/06/07 09:44:22;;;;;;;0.68;0.65;;;26.10;99.90;;;;;;4092062;29;20061;-47
2022/06/07 09:46:47;;;;;;;1.73;0.50;;;25.80;99.90;;;;;;4095410;29;20061;-45
2022/06/07 09:49:27;;;;;;;8.93;1.23;;;25.90;99.90;;;;;;4093172;29;20093;-45
2022/06/07 09:51:48;;;;;;;1.80;0.82;;;25.90;99.90;;;;;;4095583;29;20053;-48
2022/06/07 09:54:17;;;;;;;3.65;0.50;;;26.00;99.90;;;;;;4092746;29;20078;-46
2022/06/07 09:57:18;;;;;;;2.15;0.60;;;26.10;99.90;;;;;;4124555;28;20085;-46
2022/06/07 10:00:06;;;;;;;4.35;1.08;;;26.00;99.80;;;;;;4093143;29;20073;-45
2022/06/07 10:02:42;;;;;;;0.90;0.60;;;26.40;99.90;;;;;;4092210;29;20091;-44
2022/06/07 10:05:26;;;;;;;1.95;0.57;;;26.40;99.80;;;;;;4084359;29;20533;-44
2022/06/07 10:08:12;;;;;;;0.75;0.57;;;26.60;99.70;;;;;;4094218;29;20062;-44
2022/06/07 10:10:48;;;;;;;1.15;0.60;;;26.30;99.10;;;;;;4095105;29;20082;-45
2022/06/07 10:13:43;;;;;;;0.70;0.60;;;26.10;99.60;;;;;;4091166;29;20057;-47
2022/06/07 10:16:46;;;;;;;0.70;0.52;;;26.20;99.70;;;;;;4079279;29;20137;-47
2022/06/07 10:19:21;;;;;;;0.60;0.60;;;26.40;99.50;;;;;;4096513;28;20694;-46
2022/06/07 10:22:16;;;;;;;1.08;0.60;;;26.60;99.60;;;;;;4094031;29;20407;-45
2022/06/07 10:25:03;;;;;;;1.33;0.60;;;26.50;99.60;;;;;;4087523;29;20058;-45
2022/06/07 10:27:37;;;;;;;3.63;0.60;;;26.70;99.90;;;;;;4088545;29;20410;-46
2022/06/07 10:30:28;;;;;;;1.65;0.70;;;26.40;99.50;;;;;;4080407;29;20106;-45
2022/06/07 10:33:06;;;;;;;1.23;0.70;;;26.40;99.50;;;;;;4105549;28;21116;-45
2022/06/07 10:36:03;;;;;;;2.72;0.90;;;26.50;99.50;;;;;;4084117;29;20846;-46
2022/06/07 10:38:59;;;;;;;1.00;0.60;;;26.60;99.30;;;;;;4101771;28;20046;-45
2022/06/07 10:41:26;;;;;;;1.40;0.50;;;26.70;98.90;;;;;;4092896;29;20423;-45
2022/06/07 10:44:25;;;;;;;0.60;0.57;;;26.40;99.30;;;;;;4093858;29;20086;-44
2022/06/07 10:46:47;;;;;;;1.20;0.60;;;26.10;99.50;;;;;;4110596;28;20581;-44
2022/06/07 10:49:23;;;;;;;3.05;1.33;;;26.20;99.60;;;;;;4085666;29;20062;-45
2022/06/07 10:54:36;;;;;;;2.73;0.67;;;26.30;99.80;;;;;;4078334;29;20403;-48
2022/06/07 10:57:36;;;;;;;1.33;0.55;;;26.00;99.70;;;;;;4091593;29;20474;-45
2022/06/07 11:00:10;;;;;;;1.50;0.60;;;25.90;99.90;;;;;;4103586;28;20572;-44
2022/06/07 11:02:52;;;;;;;1.55;0.50;;;26.20;99.90;;;;;;4094083;29;20058;-46
2022/06/07 11:11:08;;;;;;;1.00;0.50;;;25.90;99.90;;;;;;4094704;28;20056;-46
2022/06/07 11:13:43;;;;;;;1.02;0.40;;;26.20;99.60;;;;;;4078408;29;20051;-47
2022/06/07 11:16:27;;;;;;;0.50;0.50;;;26.10;99.20;;;;;;4091005;29;20132;-46
2022/06/07 11:18:50;;;;;;;0.57;0.57;;;25.80;99.10;;;;;;4093934;29;20131;-49
2022/06/07 11:21:34;;;;;;;0.45;0.45;;;25.70;98.40;;;;;;4094145;29;20116;-46
2022/06/07 11:24:06;;;;;;;0.45;0.40;;;25.80;98.50;;;;;;4093823;29;20054;-48
2022/06/07 11:26:58;;;;;;;2.33;0.73;;;26.00;99.10;;;;;;4089806;29;20074;-48
2022/06/07 11:29:23;;;;;;;2.10;0.50;;;26.40;99.00;;;;;;4081041;29;20142;-47
2022/06/07 11:31:46;;;;;;;0.40;0.40;;;26.50;99.00;;;;;;4087590;29;20058;-45
2022/06/07 11:34:27;;;;;;;1.40;0.55;;;26.40;98.60;;;;;;4092635;29;20109;-47
2022/06/07 11:37:02;;;;;;;1.70;0.50;;;26.60;98.30;;;;;;4093523;29;20135;-46
2022/06/07 11:39:51;;;;;;;1.13;0.40;;;26.50;97.70;;;;;;4093437;29;20058;-49
2022/06/07 11:42:13;;;;;;;1.42;0.50;;;26.50;98.80;;;;;;4084996;29;20055;-46
2022/06/07 11:44:58;;;;;;;1.42;0.43;;;26.60;97.80;;;;;;4093567;29;20105;-45
2022/06/07 11:47:25;;;;;;;0.70;0.50;;;26.60;97.90;;;;;;4084878;29;20059;-46
2022/06/07 11:49:48;;;;;;;2.55;0.52;;;26.30;97.90;;;;;;4081919;29;20058;-45
2022/06/07 11:52:14;;;;;;;0.40;0.40;;;26.30;98.20;;;;;;4092994;29;20113;-48
2022/06/07 11:54:51;;;;;;;1.73;0.50;;;26.60;98.60;;;;;;4093565;29;20134;-46
2022/06/07 11:57:32;;;;;;;0.70;0.50;;;26.80;98.70;;;;;;4080810;29;20055;-46
2022/06/07 12:00:01;;;;;;;0.80;0.70;;;26.60;98.60;;;;;;4082856;29;20069;-46
2022/06/07 12:02:29;;;;;;;0.68;0.50;;;26.50;98.10;;;;;;4093049;29;20054;-46
2022/06/07 12:05:40;;;;;;;0.52;0.50;;;26.70;98.70;;;;;;4093458;29;20531;-45
2022/06/07 12:08:28;;;;;;;4.93;1.48;;;26.90;98.90;;;;;;4151157;28;20555;-47
2022/06/07 12:11:20;;;;;;;0.45;0.45;;;26.80;97.90;;;;;;4127140;28;20142;-48
2022/06/07 12:13:49;;;;;;;0.95;0.40;;;26.70;97.70;;;;;;4142082;28;20137;-45
2022/06/07 12:16:36;;;;;;;0.70;0.50;;;27.00;98.20;;;;;;4132239;28;20050;-48
2022/06/07 12:19:01;;;;;;;1.50;0.50;;;27.10;98.10;;;;;;4131628;28;20057;-47
2022/06/07 12:21:23;;;;;;;0.60;0.40;;;27.50;98.10;;;;;;4143865;28;20560;-47
2022/06/07 12:23:51;;;;;;;2.50;0.55;;;27.80;96.90;;;;;;4129110;28;20636;-46
2022/06/07 12:26:28;;;;;;;2.45;0.40;;;27.40;97.00;;;;;;4128678;28;20057;-46
2022/06/07 12:29:00;;;;;;;0.70;0.70;;;27.50;97.20;;;;;;4136955;28;20057;-45
2022/06/07 12:31:31;;;;;;;0.40;0.40;;;27.60;97.60;;;;;;4133279;28;20097;-47
2022/06/07 12:33:57;;;;;;;1.02;0.40;;;27.60;97.60;;;;;;4155965;28;20103;-44
2022/06/07 12:36:31;;;;;;;1.45;0.40;;;27.50;96.50;;;;;;4128413;28;20541;-45
2022/06/07 12:38:55;;;;;;;0.60;0.40;;;27.20;96.90;;;;;;4129689;28;20049;-46
2022/06/07 12:41:25;;;;;;;3.15;0.43;;;27.10;98.10;;;;;;4144137;28;20057;-48
2022/06/07 12:43:51;;;;;;;0.40;0.40;;;27.40;99.00;;;;;;4143034;28;20099;-45
2022/06/07 12:46:20;;;;;;;1.17;0.50;;;27.60;97.80;;;;;;4096046;29;20057;-45
2022/06/07 12:48:43;;;;;;;0.40;0.35;;;27.60;97.70;;;;;;4095881;29;20049;-45
2022/06/07 12:51:36;;;;;;;0.70;0.40;;;28.20;95.70;;;;;;4085969;29;20537;-46
2022/06/07 12:54:18;;;;;;;3.97;1.08;;;28.60;95.70;;;;;;4094658;29;20572;-44
2022/06/07 12:56:44;;;;;;;0.50;0.30;;;28.50;95.10;;;;;;4094029;29;20058;-48
2022/06/07 12:59:09;;;;;;;1.35;0.30;;;28.60;95.30;;;;;;4080460;29;20101;-48
2022/06/07 13:01:45;;;;;;;1.33;0.43;;;28.40;95.30;;;;;;4094051;29;20058;-47
2022/06/07 13:04:36;;;;;;;0.38;0.38;;;28.50;95.90;;;;;;4095922;29;20053;-46
2022/06/07 13:07:20;;;;;;;0.40;0.40;;;28.60;95.90;;;;;;4088706;29;20581;-48
2022/06/07 13:10:06;;;;;;;1.10;0.50;;;28.40;96.10;;;;;;4095787;29;20058;-47
2022/06/07 13:12:35;;;;;;;0.50;0.40;;;28.50;95.60;;;;;;4094763;29;20849;-48